Accueil
METAR-TAF:

METAR-TAF

Aéroports :

Aéroport de Nakhitchevan

Nakhitchevan, Azerbaïdjan

latitude: 39-11-19N, longitude: 045-27-30E, altitude: 873 m

Observation

Le bulletin a été fait il y a 22 minutes, à 14:30 UTC
Vent 4 kt de nord-est
Température 23°C
Humidité 29%
Pression 1012 hPa
Visibilité 10 km ou plus

METAR: UBBN 171430Z 05004KT 9999 NSC 23/04 Q1012 NOSIG RMK QFE684

Heure: 18:52 (14:52 UTC)

Prévision

Le bulletin a été fait il y a 3 heures et 58 minutes, à 10:54 UTC
Prévision valable du 17 à 12 UTC au 18 à 12 UTC
Vent 4 kt de direction variable
Visibilité 10 km ou plus
Quelques nuages à une hauteur de 4600 ft
Nuages épars à une hauteur de 10000 ft
Temporairement
du 17 à 14 UTC au 18 à 03 UTC
Vent 10 kt de nord/nord-est

TAF: UBBN 171054Z 1712/1812 VRB04KT 9999 FEW046 SCT100 TX24/1712Z TN09/1802Z TEMPO 1714/1803 02010KT

Observations et prévisions météorologiques de plus de 4000 aéroports (messages METAR et TAF).

Les stations disponibles sont représentées par des disques jaunes et rouges sur la carte.

Passer la souris dessus pour voir le nom de la station.

Cliquer dessus pour voir les observations et prévisions météorologiques.

Pour changer de carte: cliquez sur les boutons verts avec une croix noire pour zoomer, sur le bouton vert avec un tiret pour effectuer un zoom arrière, ou sur les flèches vertes pour les cartes adjacentes.


METAR-TAF: